Impacts METAR Board
IDs:

KDFW - Dallas-Ft Worth Intl, TX, US

Updated at: 1900 UTC 21 Sep 2021
Potential Impact None Slight Moderate High
Time 21/07Z 21/08Z 21/09Z 21/10Z 21/11Z 21/12Z 21/13Z 21/14Z 21/15Z 21/16Z 21/17Z 21/18Z 21/19Z
Temp84 84 80 81 81 81 75 76 77 79 80 82 86
Dewpt66 66 70 69 69 68 61 58 59 59 57 58 52
Altim29.86 29.87 29.88 29.90 29.93 29.96 30.01 30.05 30.08 30.11 30.12 30.13 30.13
VIS10 10 7 10 10 10 10 10 10 10 10 10 10
CIG-- 130 25 110 160 140 -- 120 250 -- 250 150 250
CoverSCTBKNOVCBKNBKNBKNSCTBKNBKNSCTBKNBKNBKN
FltCatVFRVFRMVFRVFRVFRVFRVFRVFRVFRVFRVFRVFRVFR
WX-----RA--------------------
WDir180190200220230210360103601036036010
WSpd11 12 9 3 3 3 12 16 21 14 18 16 16
WGst22 -- -- -- -- -- 22 -- 26 22 23 22 25
Raw hourly METARs
KDFW 210653Z 18011G22KT 10SM FEW130 SCT170 SCT250 29/19 A2986 RMK AO2 SLP100 T02890189
KDFW 210753Z 19012KT 10SM BKN130 BKN170 29/19 A2987 RMK AO2 SLP104 T02890189
KDFW 210900Z 20009KT 7SM -RA BKN025 BKN036 BKN130 OVC170 27/21 A2988 RMK AO2 P0001 T02670211
KDFW 210953Z 22003KT 10SM FEW028 BKN110 BKN160 27/21 A2990 RMK AO2 RAE10 SLP114 P0001 T02720206
KDFW 211053Z 23003KT 10SM FEW080 SCT120 BKN160 BKN190 27/21 A2993 RMK AO2 TSE26 SLP125 T02720206
KDFW 211153Z 21003KT 10SM FEW080 BKN140 BKN190 27/20 A2996 RMK AO2 LTG DSNT S SLP134 OCNL LTGIC DSNT S-SW CB DSNT S-SW MOV SE 60001 70001 T02720200 10300 20261 53027
KDFW 211253Z 36012G22KT 10SM FEW080 SCT140 SCT250 24/16 A3001 RMK AO2 LTG DSNT SE AND S SLP153 WSHFT 15 FROPA OCNL LTGIC DSNT S-SW CB DSNT S-SW MOV SE T02390161
KDFW 211353Z 01016KT 10SM FEW080 BKN120 BKN250 24/14 A3005 RMK AO2 PK WND 36027/1324 LTG DSNT N AND SW SLP165 T02440144
KDFW 211453Z 36021G26KT 10SM FEW080 SCT120 BKN250 25/15 A3008 RMK AO2 PK WND 36026/1446 LTG DSNT SE SLP178 T02500150 51041
KDFW 211553Z 01014G22KT 10SM FEW050 FEW120 SCT250 26/15 A3011 RMK AO2 SLP187 T02610150
KDFW 211653Z 36018G23KT 10SM FEW050 SCT140 BKN250 27/14 A3012 RMK AO2 SLP191 T02670139
KDFW 211753Z 36016G22KT 10SM FEW050 BKN150 BKN250 28/14 A3013 RMK AO2 SLP192 T02780144 10278 20239 51014
KDFW 211853Z 01016G25KT 10SM FEW050 SCT150 BKN250 30/11 A3013 RMK AO2 PK WND 02026/1810 SLP192 T03000111



Page loaded:  19:44 UTC  |   12:44 PM Pacific  |   01:44 PM Mountain  |   02:44 PM Central  |   03:44 PM Eastern

 

ADVISORIES

FORECASTS

FORECASTS

OBSERVATIONS

USER TOOLS

ABOUT US